#dbistima — V2PX5 — position and weather

sailwx.info

Track history (hours):
 
Tides and Currents Weather Stations Pressure Air Temp Water Temp Dewpoint Dewpoint Depression Visibility Wind Speed Wind Dir Waves Ship Positions

#dbistima

Last reported at 2014-Jul-17 15:22 UTC. Time now 2014-Jul-28 10:19 UTC.
Position N 45°21' W 006°11'.
Warning: this ship's position is 10 days out of date.

MMSI: 304010972.

Date/timePositionNaut miles runAvg speedWind from/ knotsBaromVisibWave heightAir tempDewpointWater temp
2014-Jul-17 15:22N 45°21' W 006°11'10 8.7
2014-Jul-17 14:11N 45°27' W 005°59'6 8.8
2014-Jul-17 13:31N 45°30' W 005°52'  
2014-Jul-15 02:28N 47°17' W 002°12'0 0.0
2014-Jul-14 06:04N 47°17' W 002°12'  
2014-Jul-11 00:09N 43°45' W 005°34'711.3
2014-Jul-10 23:33N 43°39' W 005°39'6 0.2
2014-Jul-10 00:20N 43°34' W 005°42'2 2.5
2014-Jul-09 23:33N 43°36' W 005°42'0 0.3
2014-Jul-09 22:32N 43°36' W 005°42'0 0.0
2014-Jul-09 21:26N 43°36' W 005°42'0 0.0
2014-Jul-09 20:26N 43°36' W 005°42'0 0.0
2014-Jul-09 19:32N 43°36' W 005°42'0 0.0
2014-Jul-09 18:14N 43°36' W 005°42'0 0.0
2014-Jul-09 17:32N 43°36' W 005°42'0 0.0
2014-Jul-09 16:32N 43°36' W 005°42'0 0.0
2014-Jul-09 15:32N 43°36' W 005°42'0 0.0
2014-Jul-09 14:14N 43°36' W 005°42'0 0.0
2014-Jul-09 13:31N 43°36' W 005°42'0 0.0
2014-Jul-09 12:26N 43°36' W 005°42'0 0.0
2014-Jul-09 11:31N 43°36' W 005°42'0 0.0
2014-Jul-09 10:31N 43°36' W 005°42'0 0.0
2014-Jul-09 09:19N 43°36' W 005°42'0 0.0
2014-Jul-09 05:14N 43°36' W 005°42'1 1.4
2014-Jul-09 04:16N 43°36' W 005°40'5 6.3
2014-Jul-09 03:33N 43°35' W 005°34'6 6.3
2014-Jul-09 02:32N 43°35' W 005°25'6 5.8
2014-Jul-09 01:26N 43°35' W 005°16'  
Track history (hours):
 
Tides and Currents Weather Stations Pressure Air Temp Water Temp Dewpoint Dewpoint Depression Visibility Wind Speed Wind Dir Waves Ship Positions

#dbistima

Last reported at 2014-Jul-17 15:22 UTC. Time now 2014-Jul-28 10:19 UTC.
Position N 45°21' W 006°11'.
Warning: this ship's position is 10 days out of date.

MMSI: 304010972.

Date/timePositionNaut miles runAvg speedWind from/ knotsBaromVisibWave heightAir tempDewpointWater temp
2014-Jul-17 15:22N 45°21' W 006°11'10 8.7
2014-Jul-17 14:11N 45°27' W 005°59'6 8.8
2014-Jul-17 13:31N 45°30' W 005°52'  
2014-Jul-15 02:28N 47°17' W 002°12'0 0.0
2014-Jul-14 06:04N 47°17' W 002°12'  
2014-Jul-11 00:09N 43°45' W 005°34'711.3
2014-Jul-10 23:33N 43°39' W 005°39'6 0.2
2014-Jul-10 00:20N 43°34' W 005°42'2 2.5
2014-Jul-09 23:33N 43°36' W 005°42'0 0.3
2014-Jul-09 22:32N 43°36' W 005°42'0 0.0
2014-Jul-09 21:26N 43°36' W 005°42'0 0.0
2014-Jul-09 20:26N 43°36' W 005°42'0 0.0
2014-Jul-09 19:32N 43°36' W 005°42'0 0.0
2014-Jul-09 18:14N 43°36' W 005°42'0 0.0
2014-Jul-09 17:32N 43°36' W 005°42'0 0.0
2014-Jul-09 16:32N 43°36' W 005°42'0 0.0
2014-Jul-09 15:32N 43°36' W 005°42'0 0.0
2014-Jul-09 14:14N 43°36' W 005°42'0 0.0
2014-Jul-09 13:31N 43°36' W 005°42'0 0.0
2014-Jul-09 12:26N 43°36' W 005°42'0 0.0
2014-Jul-09 11:31N 43°36' W 005°42'0 0.0
2014-Jul-09 10:31N 43°36' W 005°42'0 0.0
2014-Jul-09 09:19N 43°36' W 005°42'0 0.0
2014-Jul-09 05:14N 43°36' W 005°42'1 1.4
2014-Jul-09 04:16N 43°36' W 005°40'5 6.3
2014-Jul-09 03:33N 43°35' W 005°34'6 6.3
2014-Jul-09 02:32N 43°35' W 005°25'6 5.8
2014-Jul-09 01:26N 43°35' W 005°16'  

Dump ship's entire track history